Dixfield, Maine
Current Conditions -  °F | °C
As of 8:35 AM on Friday 19 Dec 2014 (Local Time) from KLEW Reporting Station
Overcast Overcast  
Wind Chill: 20°   Ceiling: 5500
Heat Index: 30°   Visibility: 10mi
Dew Point: 21°   Wind: 13mph
Humidity: 69%   Direction: 340°NNW
Pressure: 29.89"   Gusts: NA
Location:  44.53°N, 70.45°W
Report Text: KLEW 191335Z AUTO 34011KT 10SM OVC055 M01/M06 A2989 RMK AO1
Loading
Personal Weather Stations






























Interactive Weather Map New forecast layout! Learn more

10-Day Weather Forecast

Advertisements
Track Severe Weather on mobile